Time;durP1;ratioP1;P1;durP2;ratioP2;P2;SDS_P1;SDS_P2;PMS_P1;PMS_P2;Temp;Humidity;BMP_temperature;BMP_pressure;BME280_temperature;BME280_humidity;BME280_pressure;Samples;Min_cycle;Max_cycle;Signal;HPM_P1;HPM_P2
2021/12/16 00:01:47;;;;;;;;;;;3.30;99.90;3.90;101225.00;;;;344586;28;89872;-96
2021/12/16 00:01:59;;;;;;;;;;;3.40;99.90;3.90;101235.00;;;;346384;28;82479;-96
2021/12/16 00:02:12;;;;;;;;;;;3.30;99.90;3.90;101218.00;;;;343319;28;90922;-96
2021/12/16 00:02:36;;;;;;;;;;;3.30;99.90;3.80;101225.00;;;;345018;28;82459;-96
2021/12/16 00:07:35;;;;;;;;;;;3.30;99.90;3.90;101217.00;;;;340514;28;82440;-96
2021/12/16 00:07:59;;;;;;;;;;;3.30;99.90;4.00;101217.00;;;;337562;28;88987;-95
2021/12/16 00:08:23;;;;;;;;;;;3.30;99.90;4.00;101223.00;;;;339515;28;83385;-96
2021/12/16 00:08:40;;;;;;;;;;;3.30;99.90;4.00;101219.00;;;;339967;28;90842;-96
2021/12/16 00:08:59;;;;;;;;;;;3.30;99.90;4.00;101213.00;;;;340702;28;82483;-96
2021/12/16 00:09:20;;;;;;;;;;;3.40;99.90;4.00;101216.00;;;;338812;28;91346;-96
2021/12/16 00:10:18;;;;;;;;;;;3.40;99.90;3.90;101223.00;;;;339979;28;90073;-96
2021/12/16 00:10:37;;;;;;;;;;;3.30;99.90;3.90;101218.00;;;;339232;28;82422;-96
2021/12/16 00:11:00;;;;;;;;;;;3.40;99.90;4.00;101215.00;;;;340235;28;91298;-96
2021/12/16 00:11:28;;;;;;;;;;;3.40;99.90;4.00;101212.00;;;;339281;28;82621;-96
2021/12/16 00:29:01;;;;;;;;;;;3.30;99.90;3.90;101215.00;;;;339972;28;91528;-96
2021/12/16 00:31:02;;;;;;;;;;;3.30;99.90;3.80;101223.00;;;;336493;28;83198;-96
2021/12/16 00:31:56;;;;;;;;;;;3.30;99.90;3.90;101216.00;;;;340114;28;90394;-96
2021/12/16 00:33:12;;;;;;;;;;;3.30;99.90;3.90;101223.00;;;;338018;28;82523;-96
2021/12/16 00:33:36;;;;;;;;;;;3.30;99.90;3.90;101218.00;;;;335892;28;89856;-96
2021/12/16 00:34:00;;;;;;;;;;;3.30;99.90;4.00;101214.00;;;;339354;28;83332;-96
2021/12/16 00:34:12;;;;;;;;;;;3.30;99.90;4.00;101215.00;;;;336446;28;89345;-96
2021/12/16 00:34:28;;;;;;;;;;;3.30;99.90;4.00;101213.00;;;;334021;28;83301;-96
2021/12/16 00:34:40;;;;;;;;;;;3.30;99.90;4.00;101209.00;;;;336219;28;90735;-96
2021/12/16 00:34:51;;;;;;;;;;;3.30;99.90;4.00;101212.00;;;;338081;28;83404;-96
2021/12/16 00:35:04;;;;;;;;;;;3.30;99.90;4.00;101210.00;;;;336922;28;89733;-96
2021/12/16 00:35:16;;;;;;;;;;;3.30;99.90;4.00;101210.00;;;;336492;28;83560;-96
2021/12/16 00:35:28;;;;;;;;;;;3.40;99.90;4.00;101214.00;;;;334742;29;89713;-96
2021/12/16 00:35:41;;;;;;;;;;;3.30;99.90;4.00;101210.00;;;;336827;28;82429;-96
2021/12/16 00:35:53;;;;;;;;;;;3.40;99.90;4.00;101204.00;;;;337357;28;89285;-96
2021/12/16 00:36:06;;;;;;;;;;;3.40;99.90;4.10;101219.00;;;;335600;29;82311;-96
2021/12/16 00:36:18;;;;;;;;;;;3.40;99.90;4.10;101214.00;;;;334965;29;91616;-95
2021/12/16 00:36:38;;;;;;;;;;;3.40;99.90;4.10;101207.00;;;;335312;29;82729;-96
2021/12/16 00:36:50;;;;;;;;;;;3.40;99.90;4.10;101219.00;;;;335027;29;91981;-96
2021/12/16 00:37:02;;;;;;;;;;;3.40;99.90;4.10;101213.00;;;;337578;28;83909;-96
2021/12/16 00:37:13;;;;;;;;;;;3.40;99.90;4.10;101213.00;;;;337385;28;90239;-96
2021/12/16 00:37:26;;;;;;;;;;;3.40;99.90;4.10;101212.00;;;;335331;28;82542;-96
2021/12/16 00:37:38;;;;;;;;;;;3.40;99.90;4.10;101216.00;;;;336217;28;88922;-96
2021/12/16 00:37:50;;;;;;;;;;;3.40;99.90;4.10;101210.00;;;;339334;28;83147;-96
2021/12/16 00:38:02;;;;;;;;;;;3.40;99.90;4.20;101215.00;;;;338984;28;89885;-95
2021/12/16 00:38:14;;;;;;;;;;;3.40;99.90;4.20;101206.00;;;;335484;28;82559;-96
2021/12/16 00:38:26;;;;;;;;;;;3.50;99.90;4.20;101215.00;;;;337512;28;91911;-96
2021/12/16 00:38:38;;;;;;;;;;;3.50;99.90;4.20;101214.00;;;;334062;29;82448;-96
2021/12/16 00:38:50;;;;;;;;;;;3.50;99.90;4.10;101211.00;;;;336247;28;91759;-96
2021/12/16 00:39:08;;;;;;;;;;;3.50;99.90;4.20;101212.00;;;;339425;28;83057;-96
2021/12/16 00:39:29;;;;;;;;;;;3.50;99.90;4.20;101213.00;;;;337457;28;90624;-96
2021/12/16 00:39:41;;;;;;;;;;;3.50;99.90;4.20;101216.00;;;;337967;28;82525;-96
2021/12/16 00:39:53;;;;;;;;;;;3.50;99.90;4.20;101212.00;;;;337718;28;90736;-96
2021/12/16 00:40:07;;;;;;;;;;;3.50;99.90;4.20;101208.00;;;;340259;28;82494;-96
2021/12/16 00:40:19;;;;;;;;;;;3.50;99.90;4.00;101205.00;;;;337646;28;90819;-96
2021/12/16 00:40:31;;;;;;;;;;;3.50;99.90;4.00;101212.00;;;;334686;29;82584;-96
2021/12/16 00:40:43;;;;;;;;;;;3.50;99.90;4.00;101203.00;;;;334859;29;91466;-96
2021/12/16 00:40:56;;;;;;;;;;;3.50;99.90;4.00;101215.00;;;;336731;28;82472;-96
2021/12/16 00:41:08;;;;;;;;;;;3.50;99.90;4.00;101198.00;;;;336424;28;91725;-96
2021/12/16 00:41:20;;;;;;;;;;;3.50;99.90;3.90;101207.00;;;;336826;28;82522;-96
2021/12/16 00:41:32;;;;;;;;;;;3.50;99.90;3.90;101211.00;;;;336407;28;89424;-96
2021/12/16 00:41:48;;;;;;;;;;;3.40;99.90;4.00;101205.00;;;;335804;28;82753;-96
2021/12/16 00:42:06;;;;;;;;;;;3.40;99.90;4.00;101207.00;;;;338162;28;90131;-96
2021/12/16 00:43:14;;;;;;;;;;;3.40;99.90;4.10;101216.00;;;;336233;28;90459;-96
2021/12/16 00:44:05;;;;;;;;;;;3.50;99.90;4.10;101211.00;;;;336522;28;91250;-96
2021/12/16 00:45:08;;;;;;;;;;;3.50;99.90;4.00;101211.00;;;;334567;29;83300;-96
2021/12/16 00:45:30;;;;;;;;;;;3.50;99.90;4.00;101205.00;;;;336972;28;82525;-96
2021/12/16 00:47:12;;;;;;;;;;;3.40;99.90;4.00;101204.00;;;;339438;28;83182;-96
2021/12/16 00:48:00;;;;;;;;;;;3.50;99.90;3.90;101202.00;;;;339220;28;82516;-95
2021/12/16 00:48:26;;;;;;;;;;;3.40;99.90;4.10;101209.00;;;;340702;28;83344;-96
2021/12/16 00:49:19;;;;;;;;;;;3.50;99.90;4.10;101211.00;;;;339042;28;82433;-96
2021/12/16 00:49:36;;;;;;;;;;;3.50;99.90;4.10;101219.00;;;;341520;28;90312;-95
2021/12/16 00:49:50;;;;;;;;;;;3.50;99.90;4.10;101209.00;;;;336543;28;82812;-96
2021/12/16 00:50:18;;;;;;;;;;;3.50;99.90;4.00;101213.00;;;;337613;28;90876;-96
2021/12/16 00:54:18;;;;;;;;;;;3.50;99.90;4.10;101213.00;;;;338786;28;89609;-96
2021/12/16 00:54:30;;;;;;;;;;;3.50;99.90;4.20;101210.00;;;;336715;28;82453;-95
2021/12/16 00:54:48;;;;;;;;;;;3.50;99.90;4.20;101211.00;;;;338760;28;89826;-96
2021/12/16 00:55:50;;;;;;;;;;;3.50;99.90;4.10;101212.00;;;;338278;28;82619;-96
2021/12/16 00:55:54;;;;;;;;;;;3.50;99.90;4.20;101214.00;;;;337782;28;82535;-95
2021/12/16 00:56:06;;;;;;;;;;;3.50;99.90;4.10;101208.00;;;;339248;28;91610;-96
2021/12/16 00:56:18;;;;;;;;;;;3.50;99.90;4.20;101212.00;;;;336578;28;82735;-96
2021/12/16 00:56:29;;;;;;;;;;;3.50;99.90;4.20;101209.00;;;;342063;28;89905;-96
2021/12/16 00:56:43;;;;;;;;;;;3.50;99.90;4.20;101201.00;;;;342597;28;82482;-96
2021/12/16 00:57:01;;;;;;;;;;;3.50;99.90;4.20;101207.00;;;;343440;28;90405;-95
2021/12/16 00:57:15;;;;;;;;;;;3.60;99.90;4.20;101202.00;;;;342378;28;82593;-95
2021/12/16 00:57:27;;;;;;;;;;;3.60;99.90;4.10;101206.00;;;;340680;28;90689;-95
2021/12/16 00:57:41;;;;;;;;;;;3.60;99.90;4.10;101207.00;;;;343698;28;83373;-95
2021/12/16 00:57:53;;;;;;;;;;;3.50;99.90;4.10;101204.00;;;;340575;28;91138;-96
2021/12/16 00:58:06;;;;;;;;;;;3.50;99.90;4.10;101207.00;;;;341993;28;82472;-95
2021/12/16 00:58:22;;;;;;;;;;;3.50;99.90;4.10;101206.00;;;;342935;28;90760;-95
2021/12/16 00:58:44;;;;;;;;;;;3.60;99.90;4.10;101210.00;;;;343944;28;82419;-95
2021/12/16 00:58:58;;;;;;;;;;;3.50;99.90;4.10;101206.00;;;;340887;28;90772;-95
2021/12/16 00:59:12;;;;;;;;;;;3.50;99.90;4.20;101214.00;;;;344052;28;82293;-95
2021/12/16 00:59:27;;;;;;;;;;;3.50;99.90;4.10;101214.00;;;;342323;28;88668;-96
2021/12/16 00:59:44;;;;;;;;;;;3.50;99.90;4.10;101207.00;;;;342873;28;82663;-95
2021/12/16 01:00:00;;;;;;;;;;;3.60;99.90;4.20;101214.00;;;;343541;28;90831;-95
2021/12/16 01:00:14;;;;;;;;;;;3.60;99.90;4.20;101202.00;;;;344303;28;82419;-95
2021/12/16 01:00:29;;;;;;;;;;;3.50;99.90;4.10;101212.00;;;;343832;28;90702;-96
2021/12/16 01:00:49;;;;;;;;;;;3.50;99.90;4.10;101205.00;;;;345892;28;82472;-96
2021/12/16 01:01:10;;;;;;;;;;;3.60;99.90;4.20;101213.00;;;;343209;28;89240;-95
2021/12/16 01:03:20;;;;;;;;;;;3.60;99.90;4.20;101203.00;;;;345992;28;90230;-96
2021/12/16 01:05:09;;;;;;;;;;;3.60;99.90;4.00;101203.00;;;;343012;28;88140;-96
2021/12/16 01:06:10;;;;;;;;;;;3.50;99.90;3.90;101215.00;;;;342985;28;87949;-96
2021/12/16 01:07:08;;;;;;;;;;;3.50;99.90;3.90;101208.00;;;;341467;28;89584;-96
2021/12/16 01:08:34;;;;;;;;;;;3.40;99.90;3.90;101209.00;;;;343356;28;83202;-96
2021/12/16 01:34:29;;;;;;;;;;;3.50;99.90;4.10;101218.00;;;;341948;28;82336;-96
2021/12/16 01:34:37;;;;;;;;;;;3.50;99.90;4.10;101214.00;;;;339291;28;90783;-96
2021/12/16 01:35:01;;;;;;;;;;;3.50;99.90;4.10;101218.00;;;;342116;28;82547;-96
2021/12/16 01:35:27;;;;;;;;;;;3.50;99.90;4.20;101211.00;;;;341630;28;90745;-96
2021/12/16 01:36:31;;;;;;;;;;;3.50;99.90;4.20;101207.00;;;;338853;28;89476;-96
2021/12/16 01:37:34;;;;;;;;;;;3.60;99.90;4.30;101220.00;;;;338268;28;82459;-96
2021/12/16 01:37:48;;;;;;;;;;;3.60;99.90;4.20;101215.00;;;;342060;28;89835;-96
2021/12/16 01:40:05;;;;;;;;;;;3.60;99.90;4.30;101218.00;;;;339533;28;82289;-96
2021/12/16 01:41:13;;;;;;;;;;;3.60;99.90;4.30;101215.00;;;;339382;28;82353;-96
2021/12/16 01:42:32;;;;;;;;;;;3.60;99.90;4.30;101219.00;;;;344048;28;89105;-95
2021/12/16 01:47:12;;;;;;;;;;;3.70;99.90;4.40;101205.00;;;;337183;28;89186;-96
2021/12/16 01:47:22;;;;;;;;;;;3.70;99.90;4.40;101215.00;;;;336343;28;82385;-96
2021/12/16 01:49:26;;;;;;;;;;;3.70;99.90;4.40;101226.00;;;;333988;28;82329;-96
2021/12/16 01:49:54;;;;;;;;;;;3.70;99.90;4.30;101219.00;;;;332841;28;89833;-96
2021/12/16 01:50:11;;;;;;;;;;;3.70;99.90;4.20;101220.00;;;;338710;28;82606;-96
2021/12/16 01:50:31;;;;;;;;;;;3.70;99.90;4.20;101226.00;;;;335901;28;89715;-96
2021/12/16 01:50:53;;;;;;;;;;;3.70;99.90;4.30;101224.00;;;;337750;28;82537;-96
2021/12/16 01:51:18;;;;;;;;;;;3.70;99.90;4.30;101224.00;;;;337387;28;90504;-96
2021/12/16 01:51:50;;;;;;;;;;;3.70;99.90;4.30;101223.00;;;;334044;29;82481;-96
2021/12/16 01:52:23;;;;;;;;;;;3.70;99.90;4.40;101217.00;;;;335750;28;89637;-95
2021/12/16 01:53:36;;;;;;;;;;;3.70;99.90;4.40;101220.00;;;;336917;28;89723;-96
2021/12/16 01:54:39;;;;;;;;;;;3.70;99.90;4.30;101220.00;;;;340626;28;83355;-96
2021/12/16 01:56:07;;;;;;;;;;;3.70;99.90;4.30;101227.00;;;;332451;29;83475;-96
2021/12/16 01:56:53;;;;;;;;;;;3.70;99.90;4.40;101206.00;;;;350153;27;82364;-95
2021/12/16 01:57:17;;;;;;;;;;;3.70;99.90;4.40;101218.00;;;;348515;27;84775;-95
2021/12/16 01:57:33;;;;;;;;;;;3.80;99.90;4.40;101219.00;;;;347087;28;82491;-95
2021/12/16 01:57:50;;;;;;;;;;;3.80;99.90;4.40;101214.00;;;;344506;28;84401;-95
2021/12/16 01:58:14;;;;;;;;;;;3.80;99.90;4.50;101209.00;;;;345314;28;83529;-96
2021/12/16 01:58:29;;;;;;;;;;;3.80;99.90;4.40;101204.00;;;;344371;28;84733;-96
2021/12/16 01:58:40;;;;;;;;;;;3.80;99.90;4.40;101205.00;;;;344550;28;83223;-95
2021/12/16 01:58:52;;;;;;;;;;;3.80;99.90;4.50;101209.00;;;;344551;28;84008;-96
2021/12/16 01:59:06;;;;;;;;;;;3.80;99.90;4.50;101217.00;;;;344376;28;82532;-95
2021/12/16 01:59:21;;;;;;;;;;;3.80;99.90;4.50;101213.00;;;;344603;28;83646;-95
2021/12/16 01:59:35;;;;;;;;;;;3.80;99.90;4.50;101218.00;;;;346082;28;82410;-94
2021/12/16 01:59:56;;;;;;;;;;;3.80;99.90;4.50;101215.00;;;;346086;28;83817;-95
2021/12/16 02:00:26;;;;;;;;;;;3.80;99.90;4.50;101215.00;;;;342969;28;82500;-96
2021/12/16 02:01:29;;;;;;;;;;;3.80;99.90;4.50;101218.00;;;;344412;28;84136;-95
2021/12/16 02:01:31;;;;;;;;;;;3.80;99.90;4.50;101218.00;;;;342545;28;82719;-95
2021/12/16 02:01:43;;;;;;;;;;;3.90;99.90;4.50;101217.00;;;;345902;28;84523;-95
2021/12/16 02:02:03;;;;;;;;;;;3.90;99.90;4.50;101227.00;;;;344669;28;82497;-95
2021/12/16 02:02:34;;;;;;;;;;;3.90;99.90;4.50;101217.00;;;;347313;28;85216;-94
2021/12/16 02:02:50;;;;;;;;;;;3.90;99.90;4.50;101224.00;;;;347327;28;82333;-95
2021/12/16 02:03:05;;;;;;;;;;;3.90;99.90;4.50;101202.00;;;;345789;28;84288;-95
2021/12/16 02:03:24;;;;;;;;;;;3.90;99.90;4.40;101217.00;;;;347265;28;82388;-95
2021/12/16 02:03:40;;;;;;;;;;;3.90;99.90;4.40;101216.00;;;;345664;28;83089;-95
2021/12/16 02:03:55;;;;;;;;;;;3.90;99.90;4.50;101216.00;;;;345794;28;82488;-95
2021/12/16 02:04:19;;;;;;;;;;;3.90;99.90;4.50;101218.00;;;;346274;28;86549;-94
2021/12/16 02:04:40;;;;;;;;;;;3.90;99.90;4.50;101225.00;;;;344376;28;82330;-95
2021/12/16 02:05:23;;;;;;;;;;;3.90;99.90;4.50;101221.00;;;;344569;28;84435;-94
2021/12/16 02:06:23;;;;;;;;;;;3.90;99.90;4.60;101218.00;;;;344472;28;86576;-94
2021/12/16 02:07:06;;;;;;;;;;;3.90;99.90;4.40;101221.00;;;;346037;28;84345;-94
2021/12/16 02:07:41;;;;;;;;;;;3.90;99.90;4.50;101227.00;;;;344389;28;82440;-94
2021/12/16 02:08:20;;;;;;;;;;;3.90;99.90;4.40;101224.00;;;;344565;28;82364;-94
2021/12/16 02:08:35;;;;;;;;;;;3.90;99.90;4.50;101220.00;;;;345592;28;85476;-94
2021/12/16 02:08:48;;;;;;;;;;;3.90;99.90;4.40;101221.00;;;;344360;28;82628;-95
2021/12/16 02:09:02;;;;;;;;;;;3.90;99.90;4.40;101219.00;;;;342971;28;86437;-95
2021/12/16 02:09:28;;;;;;;;;;;3.90;99.90;4.40;101215.00;;;;343239;28;83133;-95
2021/12/16 02:09:44;;;;;;;;;;;3.90;99.90;4.50;101216.00;;;;344378;28;83630;-96
2021/12/16 02:10:02;;;;;;;;;;;3.90;99.90;4.50;101216.00;;;;344428;28;82308;-95
2021/12/16 02:10:15;;;;;;;;;;;3.90;99.90;4.50;101217.00;;;;346030;28;82710;-95
2021/12/16 02:10:33;;;;;;;;;;;3.90;99.90;4.50;101217.00;;;;344396;28;82599;-95
2021/12/16 02:10:55;;;;;;;;;;;3.90;99.90;4.40;101213.00;;;;347090;28;86022;-95
2021/12/16 02:13:15;;;;;;;;;;;3.90;99.90;4.30;101218.00;;;;342981;28;82358;-95
2021/12/16 02:13:18;;;;;;;;;;;3.90;99.90;4.40;101221.00;;;;344573;28;82382;-94
2021/12/16 02:13:44;;;;;;;;;;;3.90;99.90;4.40;101218.00;;;;343811;28;88044;-95
2021/12/16 02:27:37;;;;;;;;;;;3.70;99.90;4.10;101203.00;;;;342982;28;82585;-95
2021/12/16 02:28:51;;;;;;;;;;;3.70;99.90;4.40;101201.00;;;;336320;28;82497;-94
2021/12/16 02:29:44;;;;;;;;;;;3.70;99.90;4.30;101194.00;;;;337744;28;82369;-95
2021/12/16 02:30:44;;;;;;;;;;;3.70;99.90;4.20;101202.00;;;;338777;28;85874;-95
2021/12/16 02:32:40;;;;;;;;;;;3.70;99.90;4.40;101193.00;;;;336449;29;83327;-95
2021/12/16 02:34:58;;;;;;;;;;;3.80;99.90;4.30;101183.00;;;;337753;28;82434;-94
2021/12/16 02:35:26;;;;;;;;;;;3.80;99.90;4.10;101185.00;;;;336171;28;85730;-95
2021/12/16 02:35:47;;;;;;;;;;;3.70;99.90;4.20;101187.00;;;;333822;29;83508;-96
2021/12/16 02:36:14;;;;;;;;;;;3.70;99.90;4.40;101192.00;;;;336105;28;86331;-95
2021/12/16 02:36:36;;;;;;;;;;;3.70;99.90;4.50;101189.00;;;;336338;28;82439;-95
2021/12/16 02:36:48;;;;;;;;;;;3.80;99.90;4.40;101190.00;;;;337596;28;83821;-94
2021/12/16 02:37:00;;;;;;;;;;;3.80;99.90;4.50;101185.00;;;;338810;28;86210;-95
2021/12/16 02:37:18;;;;;;;;;;;3.80;99.90;4.50;101185.00;;;;338981;28;88210;-95
2021/12/16 02:37:33;;;;;;;;;;;3.80;99.90;4.40;101181.00;;;;340401;28;82425;-95
2021/12/16 02:37:48;;;;;;;;;;;3.80;99.90;4.30;101185.00;;;;337699;28;83702;-96
2021/12/16 02:38:03;;;;;;;;;;;3.80;99.90;4.20;101187.00;;;;334940;29;82607;-95
2021/12/16 02:38:17;;;;;;;;;;;3.80;99.90;4.20;101186.00;;;;336122;28;85267;-95
2021/12/16 02:38:32;;;;;;;;;;;3.80;99.90;4.30;101188.00;;;;338964;28;82390;-94
2021/12/16 02:38:46;;;;;;;;;;;3.70;99.90;4.30;101186.00;;;;336398;28;84081;-95
2021/12/16 02:39:16;;;;;;;;;;;3.80;99.90;4.30;101185.00;;;;337607;28;82624;-96
2021/12/16 02:39:30;;;;;;;;;;;3.80;99.90;4.40;101179.00;;;;337742;28;85653;-96
2021/12/16 02:39:42;;;;;;;;;;;3.80;99.90;4.40;101176.00;;;;340509;28;82293;-94
2021/12/16 02:39:54;;;;;;;;;;;3.80;99.90;4.40;101185.00;;;;338671;28;86190;-95
2021/12/16 02:40:07;;;;;;;;;;;3.80;99.90;4.40;101182.00;;;;338726;28;82914;-94
2021/12/16 02:40:19;;;;;;;;;;;3.80;99.90;4.40;101184.00;;;;336226;28;85430;-94
2021/12/16 02:40:33;;;;;;;;;;;3.80;99.90;4.50;101177.00;;;;336288;28;83250;-95
2021/12/16 02:40:45;;;;;;;;;;;3.80;99.90;4.40;101172.00;;;;336268;28;86333;-95
2021/12/16 02:40:58;;;;;;;;;;;3.80;99.90;4.40;101176.00;;;;335133;29;83150;-95
2021/12/16 02:41:10;;;;;;;;;;;3.80;99.90;4.30;101185.00;;;;337371;28;85451;-95
2021/12/16 02:41:22;;;;;;;;;;;3.80;99.90;4.40;101175.00;;;;335104;29;82486;-95
2021/12/16 02:41:34;;;;;;;;;;;3.80;99.90;4.30;101182.00;;;;336356;28;84684;-96
2021/12/16 02:41:47;;;;;;;;;;;3.80;99.90;4.30;101180.00;;;;337755;28;82440;-94
2021/12/16 02:42:12;;;;;;;;;;;3.80;99.90;4.40;101182.00;;;;336271;29;84765;-94
2021/12/16 02:42:34;;;;;;;;;;;3.80;99.90;4.50;101179.00;;;;336227;28;83377;-95
2021/12/16 02:44:41;;;;;;;;;;;3.90;99.90;4.40;101185.00;;;;337760;28;82375;-95
2021/12/16 02:48:29;;;;;;;;;;;3.90;99.90;4.40;101181.00;;;;337625;28;82458;-95
2021/12/16 02:48:43;;;;;;;;;;;3.90;99.90;4.50;101188.00;;;;337725;28;82513;-95
2021/12/16 02:48:55;;;;;;;;;;;3.90;99.90;4.40;101177.00;;;;338816;28;82429;-95
2021/12/16 02:49:06;;;;;;;;;;;3.90;99.90;4.40;101170.00;;;;339015;28;84939;-95
2021/12/16 02:49:18;;;;;;;;;;;3.90;99.90;4.30;101184.00;;;;336379;29;83403;-95
2021/12/16 02:49:30;;;;;;;;;;;3.80;99.90;4.30;101177.00;;;;337017;28;83768;-95
2021/12/16 02:49:44;;;;;;;;;;;3.80;99.90;4.30;101186.00;;;;336499;28;82404;-95
2021/12/16 02:49:56;;;;;;;;;;;3.80;99.90;4.40;101169.00;;;;337591;28;85917;-95
2021/12/16 02:50:09;;;;;;;;;;;3.80;99.90;4.50;101176.00;;;;337701;28;83234;-95
2021/12/16 02:50:21;;;;;;;;;;;3.80;99.90;4.50;101172.00;;;;337454;28;86297;-95
2021/12/16 02:50:32;;;;;;;;;;;3.90;99.90;4.40;101173.00;;;;336368;29;83995;-95
2021/12/16 02:50:44;;;;;;;;;;;3.90;99.90;4.30;101187.00;;;;336313;29;85076;-95
2021/12/16 02:51:01;;;;;;;;;;;3.90;99.90;4.40;101180.00;;;;338886;28;82409;-95
2021/12/16 02:51:16;;;;;;;;;;;3.80;99.90;4.40;101172.00;;;;339058;28;83888;-95
2021/12/16 02:51:28;;;;;;;;;;;3.90;99.90;4.40;101182.00;;;;339020;28;82268;-96
2021/12/16 02:51:39;;;;;;;;;;;3.80;99.90;4.40;101182.00;;;;337749;28;82538;-96
2021/12/16 02:51:51;;;;;;;;;;;3.80;99.90;4.40;101178.00;;;;336318;28;83287;-95
2021/12/16 02:52:04;;;;;;;;;;;3.80;99.90;4.40;101178.00;;;;335617;28;86832;-94
2021/12/16 02:52:17;;;;;;;;;;;3.80;99.90;4.40;101171.00;;;;337372;28;83416;-96
2021/12/16 02:52:29;;;;;;;;;;;3.80;99.90;4.50;101176.00;;;;338943;28;86353;-95
2021/12/16 02:52:41;;;;;;;;;;;3.80;99.90;4.40;101175.00;;;;340151;28;82536;-96
2021/12/16 02:52:53;;;;;;;;;;;3.80;99.90;4.40;101173.00;;;;339023;28;82985;-95
2021/12/16 02:53:05;;;;;;;;;;;3.80;99.90;4.20;101174.00;;;;337286;28;82612;-95
2021/12/16 02:53:17;;;;;;;;;;;3.80;99.90;4.20;101165.00;;;;336212;28;85723;-95
2021/12/16 02:53:28;;;;;;;;;;;3.80;99.90;4.10;101171.00;;;;337746;28;82327;-95
2021/12/16 02:54:10;;;;;;;;;;;3.80;99.90;4.20;101177.00;;;;337731;28;83891;-95
2021/12/16 02:54:23;;;;;;;;;;;3.70;99.90;4.10;101176.00;;;;335086;29;82421;-95
2021/12/16 02:54:35;;;;;;;;;;;3.70;99.90;4.10;101185.00;;;;338670;28;85374;-94
2021/12/16 02:54:47;;;;;;;;;;;3.70;99.90;4.10;101177.00;;;;337551;28;82371;-95
2021/12/16 02:54:59;;;;;;;;;;;3.70;99.90;4.30;101180.00;;;;336527;28;84309;-95
2021/12/16 02:55:13;;;;;;;;;;;3.70;99.90;4.30;101177.00;;;;336334;28;82524;-95
2021/12/16 02:55:24;;;;;;;;;;;3.70;99.90;4.30;101182.00;;;;338785;28;84911;-95
2021/12/16 02:55:36;;;;;;;;;;;3.70;99.90;4.20;101182.00;;;;339009;28;82469;-95
2021/12/16 02:55:48;;;;;;;;;;;3.70;99.90;4.20;101171.00;;;;337600;28;85381;-93
2021/12/16 02:56:00;;;;;;;;;;;3.70;99.90;4.10;101173.00;;;;339068;28;82422;-95
2021/12/16 02:56:12;;;;;;;;;;;3.70;99.90;4.10;101178.00;;;;340357;28;84138;-94
2021/12/16 02:56:24;;;;;;;;;;;3.70;99.90;4.10;101178.00;;;;340079;28;83420;-94
2021/12/16 02:56:37;;;;;;;;;;;3.70;99.90;4.10;101178.00;;;;338908;28;87089;-94
2021/12/16 02:56:48;;;;;;;;;;;3.70;99.90;4.20;101185.00;;;;341832;28;83283;-96
2021/12/16 02:57:00;;;;;;;;;;;3.60;99.90;4.30;101178.00;;;;341736;28;83931;-95
2021/12/16 02:57:12;;;;;;;;;;;3.60;99.90;4.20;101181.00;;;;338855;28;82428;-95
2021/12/16 02:57:25;;;;;;;;;;;3.60;99.90;4.10;101179.00;;;;340464;28;83640;-95
2021/12/16 02:57:45;;;;;;;;;;;3.70;99.90;4.20;101180.00;;;;340211;28;82406;-95
2021/12/16 02:58:00;;;;;;;;;;;3.70;99.90;4.30;101173.00;;;;340047;28;83800;-95
2021/12/16 02:58:13;;;;;;;;;;;3.60;99.90;4.20;101183.00;;;;339115;28;82389;-96
2021/12/16 02:58:25;;;;;;;;;;;3.60;99.90;4.10;101175.00;;;;337508;28;82575;-95
2021/12/16 02:58:39;;;;;;;;;;;3.60;99.90;4.10;101175.00;;;;339172;28;82525;-95
2021/12/16 02:58:52;;;;;;;;;;;3.60;99.90;4.10;101184.00;;;;337787;28;84254;-95
2021/12/16 02:59:05;;;;;;;;;;;3.60;99.90;4.10;101175.00;;;;337459;28;82532;-95
2021/12/16 02:59:19;;;;;;;;;;;3.60;99.90;4.20;101177.00;;;;337677;28;84972;-94
2021/12/16 02:59:32;;;;;;;;;;;3.60;99.90;4.20;101175.00;;;;339020;28;83399;-95
2021/12/16 02:59:44;;;;;;;;;;;3.60;99.90;4.20;101175.00;;;;337262;28;82733;-95
2021/12/16 02:59:56;;;;;;;;;;;3.60;99.90;4.30;101179.00;;;;339076;28;83493;-94
2021/12/16 03:00:12;;;;;;;;;;;3.70;99.90;4.30;101173.00;;;;340058;28;86014;-96
2021/12/16 03:00:24;;;;;;;;;;;3.60;99.90;4.30;101184.00;;;;341461;28;82663;-95
2021/12/16 03:00:50;;;;;;;;;;;3.70;99.90;4.20;101183.00;;;;340297;28;85661;-95
2021/12/16 03:01:18;;;;;;;;;;;3.70;99.90;4.10;101184.00;;;;340888;28;82645;-95
2021/12/16 03:01:38;;;;;;;;;;;3.70;99.90;4.00;101180.00;;;;337704;28;84353;-95
2021/12/16 03:01:51;;;;;;;;;;;3.60;99.90;4.00;101183.00;;;;339149;28;82372;-94
2021/12/16 03:02:08;;;;;;;;;;;3.60;99.90;4.10;101183.00;;;;342348;28;85186;-95
2021/12/16 03:02:20;;;;;;;;;;;3.60;99.90;4.10;101181.00;;;;340596;28;82085;-95
2021/12/16 03:02:33;;;;;;;;;;;3.60;99.90;4.20;101187.00;;;;339121;28;82551;-95
2021/12/16 03:02:47;;;;;;;;;;;3.60;99.90;4.20;101185.00;;;;340474;28;83489;-95
2021/12/16 03:02:59;;;;;;;;;;;3.60;99.90;4.10;101183.00;;;;339030;28;85242;-94
2021/12/16 03:03:11;;;;;;;;;;;3.60;99.90;4.10;101180.00;;;;340311;28;83464;-95
2021/12/16 03:03:23;;;;;;;;;;;3.60;99.90;4.10;101184.00;;;;342767;28;85016;-95
2021/12/16 03:03:37;;;;;;;;;;;3.60;99.90;4.10;101175.00;;;;340031;28;82367;-94
2021/12/16 03:03:50;;;;;;;;;;;3.60;99.90;4.00;101170.00;;;;338933;28;84331;-94
2021/12/16 03:04:03;;;;;;;;;;;3.60;99.90;4.00;101177.00;;;;336980;28;82812;-95
2021/12/16 03:04:16;;;;;;;;;;;3.60;99.90;4.10;101186.00;;;;337806;28;84641;-95
2021/12/16 03:04:29;;;;;;;;;;;3.60;99.90;4.10;101174.00;;;;338951;28;83485;-94
2021/12/16 03:04:43;;;;;;;;;;;3.60;99.90;4.00;101177.00;;;;339101;28;82557;-95
2021/12/16 03:04:55;;;;;;;;;;;3.60;99.90;4.10;101183.00;;;;343568;28;82570;-95
2021/12/16 03:05:09;;;;;;;;;;;3.60;99.90;4.10;101184.00;;;;344122;28;86203;-95
2021/12/16 03:05:21;;;;;;;;;;;3.60;99.90;4.10;101180.00;;;;347270;28;82429;-94
2021/12/16 03:05:34;;;;;;;;;;;3.60;99.90;4.10;101179.00;;;;347686;28;84284;-95
2021/12/16 03:05:45;;;;;;;;;;;3.60;99.90;4.10;101175.00;;;;347616;28;83471;-94
2021/12/16 03:05:59;;;;;;;;;;;3.60;99.90;4.00;101182.00;;;;344935;28;83980;-95
2021/12/16 03:06:12;;;;;;;;;;;3.60;99.90;4.00;101171.00;;;;346193;28;83604;-95
2021/12/16 03:06:24;;;;;;;;;;;3.60;99.90;4.10;101177.00;;;;346094;28;85495;-95
2021/12/16 03:06:37;;;;;;;;;;;3.60;99.90;4.30;101173.00;;;;346365;28;83409;-95
2021/12/16 03:06:51;;;;;;;;;;;3.60;99.90;4.20;101183.00;;;;346349;28;84384;-95
2021/12/16 03:07:03;;;;;;;;;;;3.60;99.90;4.10;101180.00;;;;345962;28;83529;-95
2021/12/16 03:07:16;;;;;;;;;;;3.60;99.90;4.10;101185.00;;;;345291;28;86413;-94
2021/12/16 03:07:27;;;;;;;;;;;3.60;99.90;4.10;101185.00;;;;346295;28;82189;-95
2021/12/16 03:07:39;;;;;;;;;;;3.60;99.90;4.10;101169.00;;;;346070;28;85578;-95
2021/12/16 03:07:51;;;;;;;;;;;3.60;99.90;4.10;101186.00;;;;345121;28;83258;-95
2021/12/16 03:08:04;;;;;;;;;;;3.60;99.90;4.10;101184.00;;;;345096;28;82516;-95
2021/12/16 03:08:16;;;;;;;;;;;3.60;99.90;4.20;101174.00;;;;345363;28;83195;-95
2021/12/16 03:08:28;;;;;;;;;;;3.60;99.90;4.10;101180.00;;;;345508;28;84045;-95
2021/12/16 03:08:40;;;;;;;;;;;3.60;99.90;4.10;101177.00;;;;344069;28;82402;-95
2021/12/16 03:08:52;;;;;;;;;;;3.60;99.90;4.00;101176.00;;;;344048;28;84047;-95
2021/12/16 03:09:06;;;;;;;;;;;3.60;99.90;4.00;101176.00;;;;342812;28;82407;-95
2021/12/16 03:09:27;;;;;;;;;;;3.60;99.90;4.00;101175.00;;;;345135;28;86450;-95
2021/12/16 03:12:46;;;;;;;;;;;3.50;99.90;3.90;101174.00;;;;344798;28;84052;-95
2021/12/16 03:13:00;;;;;;;;;;;3.50;99.90;3.80;101181.00;;;;346266;27;82558;-95
2021/12/16 03:13:25;;;;;;;;;;;3.40;99.90;3.90;101171.00;;;;346075;28;84053;-95
2021/12/16 03:13:49;;;;;;;;;;;3.40;99.90;3.90;101180.00;;;;344823;28;83344;-95
2021/12/16 03:14:28;;;;;;;;;;;3.40;99.90;3.90;101173.00;;;;345052;28;82245;-95
2021/12/16 03:14:47;;;;;;;;;;;3.40;99.90;3.80;101183.00;;;;344512;28;85235;-95
2021/12/16 03:15:11;;;;;;;;;;;3.40;99.90;3.90;101169.00;;;;343501;28;82597;-95
2021/12/16 03:15:43;;;;;;;;;;;3.40;99.90;4.10;101181.00;;;;343418;28;84119;-95